Aeroporto :
LOGIN :

Iscrizione | Disclaimer

   EN    FR    IT 

 










Sommario :    VFR   VFR Marginale   IFR   IFR Intensivo   IFR Molto Intensivo
Visibilità : 
Base nubi : 
>= 8 km
>= 3000ft
5 / 8 km
1000 / 3000 ft
1500m / 5 km
500 / 1000 ft
800 / 1500m
200 / 500 ft
< 800m
< 200 ft
Simboli :   Temporali  Nebbia  Neve Forte  Precipitazioni Forti  Vento > 20 kt
SIGMETs :   Varie  Temporali  Ghiacco  Turbolenza  Onda orograficha  Ceneri Vulcaniche






- Altitudine del aeroporto : 174 ft
- Codice IATA : RYG


ENRY - Moss , Rygge

ULTIMO METAR :
  • 040250Z AUTO 34004KT 9999NDV FEW062/// SCT080/// 11/09 Q1009

METARs OBSOLETI :
  • 040220Z AUTO 36004KT 9999NDV FEW055/// BKN064/// OVC078/// 11/10 Q1009
  • 040150Z AUTO 35005KT 9999NDV BKN068/// OVC086/// 11/09 Q1009
  • 040120Z AUTO 36003KT 330V030 9999NDV BKN084/// 11/08 Q1009
  • 040050Z AUTO VRB01KT 9999NDV FEW086/// 11/08 Q1008
  • 040020Z AUTO VRB02KT 9999NDV FEW076/// 11/08 Q1008

TAF TAF ENRY
Valido dal 04 a 00 ore il 05 a 00 ore UTC


0400/0424 01008KT 9999 FEW040
PROB30
TEMPO 0403/0409 SHRA SCT040CB
BECMG 0411/0413 22010KT



MetMap, La meteo Aeronautica in un colpo d'occhio ! - Copyright ORBIFLY Dicembre 2007 - Disclaimer

ORBIFLY MET'MAP TEAM :

Programmazione e sviluppo : Alexandra Zaïnal
Concezione : Baudouin d'Aumeries
Aiuto per la programmazione : Marc-Olivier Méhu
Supporto tecnico e logistico : Manuel Goepfert
Aiuto per la traduzione : Arnaldo La Scala

Contatto : metmap@orbifly.com




FONTI E CREDITI :

   NOAA